createdAt,value
2019-06-01T00:04:22.315Z,99.90
2019-06-01T00:09:29.624Z,99.90
2019-06-01T00:14:36.994Z,99.90
2019-06-01T00:19:44.175Z,99.90
2019-06-01T00:24:52.307Z,99.90
2019-06-01T00:30:00.509Z,99.90
2019-06-01T00:35:08.454Z,99.90
2019-06-01T00:40:15.631Z,99.90
2019-06-01T00:45:22.773Z,99.90
2019-06-01T00:50:30.855Z,99.90
2019-06-01T00:55:37.966Z,99.90
2019-06-01T01:00:47.773Z,99.90
2019-06-01T01:05:55.397Z,99.90
2019-06-01T01:11:02.686Z,99.90
2019-06-01T01:16:09.908Z,99.90
2019-06-01T01:21:17.159Z,99.90
2019-06-01T01:26:24.314Z,99.90
2019-06-01T01:31:32.259Z,99.90
2019-06-01T01:36:39.511Z,99.90
2019-06-01T01:41:47.995Z,99.90
2019-06-01T01:46:55.405Z,99.90
2019-06-01T01:52:02.666Z,99.90
2019-06-01T01:57:10.422Z,99.90
2019-06-01T02:02:17.589Z,99.90
2019-06-01T02:07:25.116Z,99.90
2019-06-01T02:12:32.971Z,99.90
2019-06-01T02:17:40.448Z,99.90
2019-06-01T02:22:48.520Z,99.90
2019-06-01T02:27:57.330Z,99.90
2019-06-01T02:33:05.703Z,99.90
2019-06-01T02:38:12.813Z,99.90
2019-06-01T02:43:20.009Z,99.90
2019-06-01T02:48:27.098Z,99.90
2019-06-01T02:53:34.190Z,99.90
2019-06-01T02:58:41.345Z,99.90
2019-06-01T03:03:48.754Z,99.90
2019-06-01T03:08:57.743Z,99.90
2019-06-01T03:14:08.813Z,99.90
2019-06-01T03:19:19.535Z,99.90
2019-06-01T03:24:27.068Z,99.90
2019-06-01T03:29:36.913Z,99.90
2019-06-01T03:34:43.955Z,99.90
2019-06-01T03:39:51.229Z,99.90
2019-06-01T03:44:58.345Z,99.90
2019-06-01T03:50:06.912Z,99.90
2019-06-01T03:55:14.273Z,99.90
2019-06-01T04:00:22.168Z,99.90
2019-06-01T04:05:29.354Z,99.90
2019-06-01T04:10:36.595Z,99.90
2019-06-01T04:15:43.694Z,99.90
2019-06-01T04:20:51.242Z,99.90
2019-06-01T04:25:58.551Z,99.90
2019-06-01T04:31:06.485Z,99.90
2019-06-01T04:36:13.814Z,99.90
2019-06-01T04:41:21.038Z,99.90
2019-06-01T04:46:28.888Z,99.90
2019-06-01T04:51:36.007Z,99.90
2019-06-01T04:56:43.245Z,99.90
2019-06-01T05:01:50.345Z,99.90
2019-06-01T05:06:57.949Z,99.90
2019-06-01T05:12:07.410Z,99.90
2019-06-01T05:17:15.398Z,99.90
2019-06-01T05:22:23.600Z,99.90
2019-06-01T05:27:30.776Z,99.90
2019-06-01T05:32:37.847Z,99.90
2019-06-01T05:37:44.962Z,99.90
2019-06-01T05:42:52.019Z,99.90
2019-06-01T05:47:59.164Z,99.90
2019-06-01T05:53:06.616Z,99.90
2019-06-01T05:58:14.980Z,99.90
2019-06-01T06:03:39.265Z,99.90
2019-06-01T06:08:32.121Z,99.90
2019-06-01T06:13:39.193Z,99.90
2019-06-01T06:18:46.414Z,99.90
2019-06-01T06:23:53.571Z,99.90
2019-06-01T06:29:00.635Z,99.90
2019-06-01T06:34:07.783Z,99.90
2019-06-01T06:39:15.839Z,99.90
2019-06-01T06:44:23.066Z,99.90
2019-06-01T06:49:30.147Z,99.90
2019-06-01T06:54:37.247Z,99.90
2019-06-01T06:59:45.749Z,99.90
2019-06-01T07:04:53.148Z,99.90
2019-06-01T07:10:01.139Z,99.90
2019-06-01T07:15:09.299Z,99.90
2019-06-01T07:20:19.529Z,99.90
2019-06-01T07:25:26.900Z,99.90
2019-06-01T07:30:49.438Z,99.90
2019-06-01T07:35:43.235Z,99.90
2019-06-01T07:40:51.735Z,99.90
2019-06-01T07:45:59.136Z,99.90
2019-06-01T07:51:06.391Z,99.90
2019-06-01T07:56:13.447Z,99.90
2019-06-01T08:01:22.766Z,99.90
2019-06-01T08:06:30.913Z,99.90
2019-06-01T08:11:38.722Z,99.90
2019-06-01T08:16:45.813Z,99.90
2019-06-01T08:21:52.903Z,99.90
2019-06-01T08:27:00.311Z,99.90
2019-06-01T08:32:07.378Z,99.90
2019-06-01T08:37:14.424Z,99.90
2019-06-01T08:42:23.442Z,99.90
2019-06-01T08:47:31.827Z,99.90
2019-06-01T08:52:39.172Z,99.90
2019-06-01T08:57:46.252Z,99.90
2019-06-01T09:02:54.259Z,99.90
2019-06-01T09:08:01.452Z,99.90
2019-06-01T09:13:09.310Z,99.90
2019-06-01T09:18:16.389Z,99.90
2019-06-01T09:23:27.670Z,99.90
2019-06-01T09:28:36.082Z,99.90
2019-06-01T09:33:43.330Z,99.90
2019-06-01T09:38:50.357Z,99.90
2019-06-01T09:43:57.434Z,99.90
2019-06-01T09:49:04.538Z,99.90
2019-06-01T09:54:11.630Z,99.60
2019-06-01T09:59:18.719Z,98.30
2019-06-01T10:04:25.780Z,98.10
2019-06-01T10:09:33.688Z,99.40
2019-06-01T10:14:40.808Z,98.20
2019-06-01T10:19:47.879Z,96.80
2019-06-01T10:24:54.991Z,98.20
2019-06-01T10:30:02.776Z,99.90
2019-06-01T10:35:10.052Z,99.20
2019-06-01T10:40:17.227Z,98.40
2019-06-01T10:45:25.408Z,97.40
2019-06-01T10:50:34.865Z,95.90
2019-06-01T10:55:42.525Z,97.50
2019-06-01T11:00:51.516Z,98.40
2019-06-01T11:05:59.442Z,99.90
2019-06-01T11:11:06.512Z,99.90
2019-06-01T11:16:13.627Z,98.50
2019-06-01T11:21:21.265Z,95.40
2019-06-01T11:26:28.328Z,95.20
2019-06-01T11:31:35.973Z,95.70
2019-06-01T11:37:01.823Z,98.40
2019-06-01T11:41:52.079Z,98.00
2019-06-01T11:46:59.130Z,93.60
2019-06-01T11:52:08.267Z,93.50
2019-06-01T11:57:15.325Z,96.20
2019-06-01T12:02:24.097Z,98.10
2019-06-01T12:07:31.666Z,98.40
2019-06-01T12:12:40.213Z,95.40
2019-06-01T12:17:47.719Z,96.20
2019-06-01T12:22:54.768Z,95.50
2019-06-01T12:28:02.147Z,95.60
2019-06-01T12:33:10.451Z,92.40
2019-06-01T12:38:17.699Z,94.00
2019-06-01T12:43:24.787Z,94.50
2019-06-01T12:48:32.417Z,92.00
2019-06-01T12:53:40.373Z,72.60
2019-06-01T12:58:48.222Z,61.10
2019-06-01T13:03:55.302Z,60.50
2019-06-01T13:09:02.267Z,61.20
2019-06-01T13:14:10.928Z,63.30
2019-06-01T13:19:18.006Z,61.90
2019-06-01T13:24:25.092Z,58.00
2019-06-01T13:29:32.103Z,58.30
2019-06-01T13:34:42.518Z,58.30
2019-06-01T13:39:54.229Z,56.90
2019-06-01T13:44:58.644Z,55.50
2019-06-01T13:50:06.990Z,59.10
2019-06-01T13:55:14.863Z,63.20
2019-06-01T14:00:30.339Z,64.30
2019-06-01T14:05:31.556Z,65.50
2019-06-01T14:10:38.903Z,69.90
2019-06-01T14:15:47.294Z,67.40
2019-06-01T14:20:56.025Z,61.90
2019-06-01T14:26:03.208Z,73.00
2019-06-01T14:31:10.197Z,79.50
2019-06-01T14:36:17.817Z,65.10
2019-06-01T14:41:25.117Z,61.60
2019-06-01T14:46:32.674Z,65.70
2019-06-01T14:51:39.767Z,79.40
2019-06-01T14:56:47.611Z,87.80
2019-06-01T15:01:56.177Z,91.80
2019-06-01T15:07:03.724Z,94.50
2019-06-01T15:12:11.066Z,96.50
2019-06-01T15:17:18.119Z,97.90
2019-06-01T15:22:25.986Z,99.90
2019-06-01T15:27:33.050Z,99.90
2019-06-01T15:32:40.222Z,99.90
2019-06-01T15:37:47.397Z,99.90
2019-06-01T15:42:55.229Z,99.90
2019-06-01T15:48:02.458Z,99.90
2019-06-01T15:53:09.998Z,99.90
2019-06-01T15:58:17.041Z,99.90
2019-06-01T16:03:24.001Z,99.90
2019-06-01T16:08:31.756Z,99.90
2019-06-01T16:13:38.852Z,99.90
2019-06-01T16:18:46.045Z,99.90
2019-06-01T16:23:54.112Z,99.90
2019-06-01T16:29:03.303Z,99.90
2019-06-01T16:34:10.858Z,99.90
2019-06-01T16:39:18.026Z,99.90
2019-06-01T16:44:25.673Z,99.90
2019-06-01T16:49:33.183Z,99.90
2019-06-01T16:54:40.208Z,99.90
2019-06-01T16:59:47.277Z,99.90
2019-06-01T17:04:54.368Z,99.90
2019-06-01T17:10:19.575Z,99.90
2019-06-01T17:15:11.221Z,99.90
2019-06-01T17:20:47.738Z,99.90
2019-06-01T17:25:54.854Z,99.90
2019-06-01T17:31:02.274Z,99.90
2019-06-01T17:36:09.580Z,99.90
2019-06-01T17:41:16.762Z,99.90
2019-06-01T17:46:23.780Z,99.90
2019-06-01T17:51:31.957Z,99.90
2019-06-01T17:56:39.160Z,99.90
2019-06-01T18:01:46.325Z,99.90
2019-06-01T18:06:53.491Z,99.90
2019-06-01T18:12:01.873Z,99.90
2019-06-01T18:17:10.337Z,99.90
2019-06-01T18:22:17.555Z,99.90
2019-06-01T18:27:24.718Z,99.90
2019-06-01T18:32:31.778Z,99.90
2019-06-01T18:37:38.804Z,99.90
2019-06-01T18:42:49.828Z,99.90
2019-06-01T18:47:57.120Z,99.90
2019-06-01T18:53:05.846Z,99.90
2019-06-01T18:58:14.669Z,99.90
2019-06-01T19:03:21.976Z,99.90
2019-06-01T19:08:29.439Z,99.90
2019-06-01T19:13:36.529Z,99.90
2019-06-01T19:18:43.568Z,99.90
2019-06-01T19:23:51.821Z,99.90
2019-06-01T19:28:59.007Z,99.90
2019-06-01T19:34:06.893Z,99.90
2019-06-01T19:39:15.201Z,99.90
2019-06-01T19:44:22.349Z,99.90
2019-06-01T19:49:29.536Z,99.90
2019-06-01T19:54:36.626Z,99.90
2019-06-01T19:59:43.802Z,99.90
2019-06-01T20:04:51.814Z,99.90
2019-06-01T20:09:59.375Z,99.90
2019-06-01T20:15:06.624Z,99.90
2019-06-01T20:20:16.955Z,99.90
2019-06-01T20:25:24.133Z,99.90
2019-06-01T20:30:31.201Z,99.90
2019-06-01T20:35:38.289Z,99.90
2019-06-01T20:40:45.530Z,99.90
2019-06-01T20:45:56.627Z,99.90
2019-06-01T20:51:01.878Z,99.90
2019-06-01T20:56:09.041Z,99.90
2019-06-01T21:01:16.154Z,99.90
2019-06-01T21:06:24.038Z,99.90
2019-06-01T21:11:31.573Z,99.90
2019-06-01T21:16:38.711Z,99.90
2019-06-01T21:21:47.035Z,99.90
2019-06-01T21:26:55.013Z,99.90
2019-06-01T21:32:02.115Z,99.90
2019-06-01T21:37:09.972Z,99.90
2019-06-01T21:42:17.431Z,99.90
2019-06-01T21:47:25.827Z,99.90
2019-06-01T21:52:32.976Z,99.90
2019-06-01T21:57:40.076Z,99.90
2019-06-01T22:02:47.491Z,99.90
2019-06-01T22:07:54.565Z,99.90
2019-06-01T22:13:17.535Z,99.90
2019-06-01T22:18:10.461Z,99.90
2019-06-01T22:23:17.934Z,99.90
2019-06-01T22:28:26.292Z,99.90
2019-06-01T22:33:34.563Z,99.90
2019-06-01T22:38:42.257Z,99.90
2019-06-01T22:43:49.304Z,99.90
2019-06-01T22:48:56.431Z,99.90
2019-06-01T22:54:05.198Z,99.90
2019-06-01T22:59:12.397Z,99.90
2019-06-01T23:04:20.854Z,99.90
2019-06-01T23:09:29.477Z,99.90
2019-06-01T23:14:36.928Z,99.90
2019-06-01T23:19:44.143Z,99.90
2019-06-01T23:24:51.340Z,99.90
2019-06-01T23:29:58.394Z,99.90
2019-06-01T23:35:06.501Z,99.90
2019-06-01T23:40:13.697Z,99.90
2019-06-01T23:45:20.773Z,99.90
2019-06-01T23:50:29.161Z,99.90
2019-06-01T23:55:36.421Z,99.90
